Time;durP1;ratioP1;P1;durP2;ratioP2;P2;SDS_P1;SDS_P2;PMS_P1;PMS_P2;Temp;Humidity;BMP_temperature;BMP_pressure;BME280_temperature;BME280_humidity;BME280_pressure;Samples;Min_cycle;Max_cycle;Signal;HPM_P1;HPM_P2
2024/01/17 00:01:54;;;;;;;29.00;11.80;;;;;;;-3.75;80.46;99528.62;129908;1270;114846;-64
2024/01/17 00:04:56;;;;;;;24.30;10.30;;;;;;;-3.82;80.28;99526.02;130001;1260;115301;-64
2024/01/17 00:07:57;;;;;;;22.50;10.40;;;;;;;-3.91;80.23;99533.39;129798;1263;114751;-65
2024/01/17 00:11:00;;;;;;;24.20;12.70;;;;;;;-4.01;80.15;99525.39;130046;1264;114756;-65
2024/01/17 00:14:02;;;;;;;28.90;11.20;;;;;;;-4.09;79.79;99515.64;129563;1263;116478;-66
2024/01/17 00:17:04;;;;;;;26.70;11.40;;;;;;;-4.17;79.91;99516.71;129964;1270;114900;-64
2024/01/17 00:20:06;;;;;;;27.60;12.80;;;;;;;-4.25;80.36;99519.88;129875;1261;114789;-66
2024/01/17 00:23:08;;;;;;;27.80;12.60;;;;;;;-4.34;79.70;99512.56;129995;1263;114759;-64
2024/01/17 00:26:11;;;;;;;27.80;12.00;;;;;;;-4.44;79.70;99505.27;129940;1268;115176;-65
2024/01/17 00:29:13;;;;;;;26.40;10.70;;;;;;;-4.54;80.02;99503.02;130101;1259;115125;-67
2024/01/17 00:32:15;;;;;;;34.20;14.60;;;;;;;-4.64;79.64;99504.77;129746;1254;128263;-68
2024/01/17 00:35:18;;;;;;;27.10;12.10;;;;;;;-4.72;79.92;99508.77;129893;1260;114737;-66
2024/01/17 00:38:20;;;;;;;28.10;11.10;;;;;;;-4.80;80.33;99511.03;129990;1277;115344;-67
2024/01/17 00:41:22;;;;;;;25.70;11.70;;;;;;;-4.90;79.53;99512.95;129934;1260;114717;-67
2024/01/17 00:44:27;;;;;;;28.10;12.30;;;;;;;-4.98;79.72;99511.20;129874;1270;115019;-68
2024/01/17 00:47:30;;;;;;;23.80;11.20;;;;;;;-5.07;78.68;99506.15;129927;1270;114776;-65
2024/01/17 00:50:32;;;;;;;25.90;12.30;;;;;;;-5.15;79.35;99507.36;129978;1260;128652;-65
2024/01/17 00:53:34;;;;;;;28.50;12.50;;;;;;;-5.23;79.15;99503.00;129898;1271;114838;-65
2024/01/17 00:56:39;;;;;;;22.40;11.80;;;;;;;-5.30;79.08;99505.23;129870;1264;114717;-65
2024/01/17 00:59:41;;;;;;;36.80;13.00;;;;;;;-5.37;79.60;99510.45;129589;1274;114908;-65
2024/01/17 01:02:43;;;;;;;33.50;12.60;;;;;;;-5.43;79.55;99506.44;129921;1254;114797;-65
2024/01/17 01:05:46;;;;;;;30.80;12.70;;;;;;;-5.50;79.46;99502.23;130112;1258;114808;-64
2024/01/17 01:08:48;;;;;;;38.90;16.40;;;;;;;-5.59;78.98;99502.05;129884;1260;114935;-65
2024/01/17 01:11:51;;;;;;;35.70;16.00;;;;;;;-5.69;79.26;99495.05;129977;1270;114777;-65
2024/01/17 01:14:53;;;;;;;40.00;15.50;;;;;;;-5.78;78.98;99491.38;129721;1263;114783;-65
2024/01/17 01:17:55;;;;;;;41.20;15.90;;;;;;;-5.87;78.79;99492.55;129947;1260;114732;-65
2024/01/17 01:20:57;;;;;;;40.70;17.60;;;;;;;-5.96;79.01;99491.30;129717;1263;114781;-65
2024/01/17 01:23:59;;;;;;;32.50;14.10;;;;;;;-6.04;78.63;99493.38;129741;1258;115388;-64
2024/01/17 01:27:01;;;;;;;28.80;12.50;;;;;;;-6.14;78.43;99489.34;129799;1260;114798;-65
2024/01/17 01:30:07;;;;;;;32.60;12.90;;;;;;;-6.23;78.61;99484.44;129800;1261;114778;-65
2024/01/17 01:33:09;;;;;;;33.10;11.70;;;;;;;-6.32;78.63;99476.75;129818;1259;128948;-65
2024/01/17 01:36:11;;;;;;;42.50;12.70;;;;;;;-6.38;79.23;99466.10;129731;1259;114837;-65
2024/01/17 01:39:14;;;;;;;30.00;13.10;;;;;;;-6.44;79.37;99462.25;129877;1261;115320;-65
2024/01/17 01:42:16;;;;;;;41.40;14.50;;;;;;;-6.49;79.25;99463.26;129916;1261;114686;-65
2024/01/17 01:45:19;;;;;;;37.50;14.70;;;;;;;-6.56;79.10;99459.76;129917;1270;114765;-66
2024/01/17 01:48:21;;;;;;;33.40;14.20;;;;;;;-6.62;79.42;99450.67;129871;1269;114804;-67
2024/01/17 01:51:25;;;;;;;34.30;15.70;;;;;;;-6.65;79.94;99452.05;130160;1269;114760;-65
2024/01/17 01:54:27;;;;;;;34.80;15.80;;;;;;;-6.68;79.97;99446.81;129335;1264;128505;-65
2024/01/17 01:57:30;;;;;;;30.30;13.50;;;;;;;-6.73;79.63;99452.69;129447;1262;114989;-65
2024/01/17 02:00:32;;;;;;;29.60;13.70;;;;;;;-6.79;79.25;99453.02;129599;1258;114962;-65
2024/01/17 02:03:35;;;;;;;33.70;14.10;;;;;;;-6.87;79.07;99447.91;129454;1280;115416;-64
2024/01/17 02:06:38;;;;;;;40.10;15.20;;;;;;;-6.95;79.18;99442.48;129614;1261;114750;-65
2024/01/17 02:09:44;;;;;;;34.00;14.30;;;;;;;-7.00;79.42;99438.61;129406;1264;114771;-65
2024/01/17 02:12:46;;;;;;;30.30;13.60;;;;;;;-7.07;78.86;99437.35;129526;1271;114762;-65
2024/01/17 02:15:48;;;;;;;32.40;13.40;;;;;;;-7.14;78.78;99442.68;129560;1260;114906;-66
2024/01/17 02:18:51;;;;;;;32.90;13.10;;;;;;;-7.22;78.44;99440.00;129560;1273;115301;-65
2024/01/17 02:21:53;;;;;;;31.20;13.80;;;;;;;-7.30;78.17;99435.27;129593;1264;114858;-65
2024/01/17 02:24:55;;;;;;;29.90;13.90;;;;;;;-7.37;78.25;99441.27;129736;1260;114749;-66
2024/01/17 02:27:57;;;;;;;32.50;13.10;;;;;;;-7.45;78.16;99442.05;129803;1262;114805;-65
2024/01/17 02:30:59;;;;;;;27.70;13.00;;;;;;;-7.53;77.81;99442.66;129776;1260;115145;-66
2024/01/17 02:34:01;;;;;;;31.00;11.90;;;;;;;-7.62;77.96;99445.01;129677;1278;114888;-65
2024/01/17 02:37:08;;;;;;;26.30;11.60;;;;;;;-7.69;78.05;99443.04;130002;1259;114808;-67
2024/01/17 02:40:10;;;;;;;30.00;11.90;;;;;;;-7.76;77.84;99437.77;129569;1278;115023;-65
2024/01/17 02:43:12;;;;;;;29.20;11.20;;;;;;;-7.83;77.63;99432.14;129913;1256;114724;-65
2024/01/17 02:46:15;;;;;;;24.80;10.50;;;;;;;-7.89;78.01;99430.52;129937;1267;115466;-66
2024/01/17 02:49:19;;;;;;;27.60;12.00;;;;;;;-7.96;78.01;99428.55;129701;1257;116350;-65
2024/01/17 02:52:21;;;;;;;29.40;12.70;;;;;;;-8.01;78.04;99428.66;130016;1270;114726;-65
2024/01/17 02:55:23;;;;;;;26.80;12.40;;;;;;;-8.04;78.36;99426.71;130007;1254;115172;-65
2024/01/17 02:58:25;;;;;;;30.00;13.50;;;;;;;-8.07;78.62;99425.65;130195;1260;114798;-65
2024/01/17 03:01:27;;;;;;;28.40;13.70;;;;;;;-8.10;78.64;99426.30;129793;1254;115319;-66
2024/01/17 03:04:29;;;;;;;31.00;13.00;;;;;;;-8.12;78.79;99427.86;130070;1260;114703;-65
2024/01/17 03:07:32;;;;;;;29.90;13.40;;;;;;;-8.15;78.59;99424.16;130020;1277;114791;-65
2024/01/17 03:10:35;;;;;;;32.30;12.70;;;;;;;-8.17;78.97;99422.76;129894;1270;115379;-65
2024/01/17 03:13:37;;;;;;;32.50;14.10;;;;;;;-8.20;78.47;99418.73;129912;1254;114786;-66
2024/01/17 03:16:39;;;;;;;31.80;12.90;;;;;;;-8.23;78.82;99416.96;129793;1260;115160;-65
2024/01/17 03:19:46;;;;;;;30.30;12.10;;;;;;;-8.26;78.38;99417.64;129934;1254;115129;-65
2024/01/17 03:22:52;;;;;;;26.90;13.90;;;;;;;-8.30;78.69;99413.44;129792;1260;114777;-65
2024/01/17 03:25:54;;;;;;;35.20;15.20;;;;;;;-8.33;78.61;99418.06;129642;1262;115143;-65
2024/01/17 03:28:56;;;;;;;35.20;14.10;;;;;;;-8.36;78.45;99418.20;129823;1259;114689;-65
2024/01/17 03:31:58;;;;;;;29.50;14.60;;;;;;;-8.39;78.44;99416.07;129852;1260;114815;-66
2024/01/17 03:35:00;;;;;;;28.20;12.50;;;;;;;-8.42;78.54;99412.77;129788;1267;115344;-67
2024/01/17 03:38:02;;;;;;;30.60;13.60;;;;;;;-8.45;78.55;99408.06;129778;1277;114956;-65
2024/01/17 03:41:06;;;;;;;34.60;15.20;;;;;;;-8.46;79.05;99405.79;129855;1256;115063;-69
2024/01/17 03:44:08;;;;;;;28.40;14.60;;;;;;;-8.44;79.68;99405.65;129840;1259;114807;-66
2024/01/17 03:47:11;;;;;;;28.60;14.30;;;;;;;-8.43;79.52;99401.48;129797;1270;114724;-68
2024/01/17 03:50:13;;;;;;;36.30;17.40;;;;;;;-8.45;79.12;99397.84;129961;1259;114712;-67
2024/01/17 03:53:15;;;;;;;46.40;16.50;;;;;;;-8.47;79.73;99396.08;129853;1274;114738;-66
2024/01/17 03:56:17;;;;;;;47.30;18.00;;;;;;;-8.48;79.82;99392.63;129819;1259;114756;-67
2024/01/17 03:59:19;;;;;;;40.20;17.40;;;;;;;-8.48;79.62;99391.77;129817;1277;114994;-65
2024/01/17 04:02:21;;;;;;;43.30;18.60;;;;;;;-8.51;78.94;99387.56;129959;1259;114744;-65
2024/01/17 04:05:24;;;;;;;42.40;16.40;;;;;;;-8.53;79.07;99378.02;129509;1261;115409;-67
2024/01/17 04:08:26;;;;;;;46.90;16.70;;;;;;;-8.56;79.62;99371.92;129996;1254;114708;-64
2024/01/17 04:11:28;;;;;;;43.90;18.20;;;;;;;-8.57;79.87;99362.92;129882;1277;114932;-63
2024/01/17 04:14:31;;;;;;;39.30;15.20;;;;;;;-8.55;80.02;99357.59;129703;1264;114873;-64
2024/01/17 04:17:35;;;;;;;31.00;14.50;;;;;;;-8.53;80.28;99346.34;129838;1257;114785;-64
2024/01/17 04:20:37;;;;;;;27.50;13.30;;;;;;;-8.52;80.34;99338.58;129805;1254;128760;-64
2024/01/17 04:23:39;;;;;;;34.10;12.70;;;;;;;-8.48;80.80;99328.73;129854;1259;114794;-68
2024/01/17 04:26:41;;;;;;;28.50;12.70;;;;;;;-8.46;81.02;99320.77;129849;1278;115292;-64
2024/01/17 04:29:43;;;;;;;30.20;13.30;;;;;;;-8.45;81.15;99314.89;129779;1270;114637;-64
2024/01/17 04:32:45;;;;;;;25.50;10.80;;;;;;;-8.46;80.43;99305.38;129769;1259;114795;-65
2024/01/17 04:35:47;;;;;;;31.30;14.60;;;;;;;-8.45;80.92;99297.23;129892;1259;114750;-67
2024/01/17 04:38:49;;;;;;;30.60;13.20;;;;;;;-8.45;81.00;99292.73;129434;1264;114785;-63
2024/01/17 04:41:51;;;;;;;27.00;11.60;;;;;;;-8.45;80.78;99289.81;129806;1278;114761;-65
2024/01/17 04:44:53;;;;;;;26.90;12.30;;;;;;;-8.44;80.86;99291.71;129847;1260;115403;-66
2024/01/17 04:47:55;;;;;;;25.80;11.10;;;;;;;-8.44;80.76;99292.58;129454;1257;114866;-65
2024/01/17 04:50:58;;;;;;;31.80;13.00;;;;;;;-8.44;81.30;99292.92;129779;1261;115215;-62
2024/01/17 04:54:01;;;;;;;16.30;9.10;;;;;;;-8.42;81.05;99293.80;129884;1254;114866;-63
2024/01/17 04:57:03;;;;;;;29.60;12.60;;;;;;;-8.41;81.58;99287.05;130022;1259;114732;-65
2024/01/17 05:00:08;;;;;;;29.50;13.60;;;;;;;-8.40;81.03;99287.25;129607;1264;114802;-65
2024/01/17 05:03:10;;;;;;;19.80;10.20;;;;;;;-8.41;80.98;99278.23;129571;1264;127158;-62
2024/01/17 05:06:12;;;;;;;27.70;11.90;;;;;;;-8.43;80.69;99274.39;129928;1254;114728;-64
2024/01/17 05:09:18;;;;;;;31.90;12.40;;;;;;;-8.46;81.24;99275.77;129871;1256;115188;-65
2024/01/17 05:12:20;;;;;;;30.60;12.10;;;;;;;-8.47;80.77;99269.88;129609;1262;114792;-64
2024/01/17 05:15:24;;;;;;;14.60;7.70;;;;;;;-8.50;80.70;99263.12;129883;1255;114807;-64
2024/01/17 05:18:26;;;;;;;16.20;8.90;;;;;;;-8.53;81.17;99260.31;129911;1259;114717;-64
2024/01/17 05:21:29;;;;;;;26.90;12.60;;;;;;;-8.56;81.04;99252.15;129873;1259;116094;-63
2024/01/17 05:24:31;;;;;;;26.00;11.50;;;;;;;-8.58;80.35;99247.95;129806;1270;114702;-66
2024/01/17 05:27:33;;;;;;;11.60;5.40;;;;;;;-8.61;80.53;99244.48;129923;1259;115533;-66
2024/01/17 05:30:35;;;;;;;28.10;12.10;;;;;;;-8.63;80.69;99238.58;129921;1260;114808;-63
2024/01/17 05:33:37;;;;;;;24.40;12.50;;;;;;;-8.64;81.22;99237.70;129940;1259;114779;-63
2024/01/17 05:36:43;;;;;;;26.70;13.80;;;;;;;-8.62;81.39;99233.56;129947;1254;114995;-63
2024/01/17 05:39:45;;;;;;;31.10;14.30;;;;;;;-8.62;81.59;99223.18;129478;1254;128496;-63
2024/01/17 05:42:47;;;;;;;43.00;21.00;;;;;;;-8.61;81.70;99218.69;129815;1259;114731;-63
2024/01/17 05:45:50;;;;;;;12.70;8.00;;;;;;;-8.60;81.50;99212.29;129880;1270;114677;-63
2024/01/17 05:48:52;;;;;;;32.70;16.20;;;;;;;-8.60;81.63;99212.83;129584;1262;114885;-66
2024/01/17 05:51:54;;;;;;;31.90;13.80;;;;;;;-8.59;81.62;99211.77;129841;1257;114757;-64
2024/01/17 05:54:57;;;;;;;34.20;12.80;;;;;;;-8.59;81.40;99211.95;129882;1259;114698;-66
2024/01/17 05:57:58;;;;;;;27.00;13.50;;;;;;;-8.60;81.20;99208.84;129712;1262;114854;-67
2024/01/17 06:01:00;;;;;;;24.90;12.30;;;;;;;-8.62;80.94;99212.27;129932;1278;114866;-66
2024/01/17 06:04:02;;;;;;;29.60;13.30;;;;;;;-8.64;81.19;99212.77;129909;1259;114721;-65
2024/01/17 06:07:05;;;;;;;31.10;15.30;;;;;;;-8.66;80.59;99213.96;129927;1259;114763;-64
2024/01/17 06:10:08;;;;;;;33.40;15.80;;;;;;;-8.69;80.81;99215.14;129796;1257;115159;-63
2024/01/17 06:13:11;;;;;;;31.40;14.40;;;;;;;-8.73;80.67;99214.92;129572;1258;114920;-63
2024/01/17 06:16:13;;;;;;;26.10;12.70;;;;;;;-8.78;80.23;99210.04;129848;1276;115027;-63
2024/01/17 06:19:16;;;;;;;31.90;12.80;;;;;;;-8.82;80.12;99210.50;129879;1257;114815;-65
2024/01/17 06:22:19;;;;;;;21.20;11.30;;;;;;;-8.89;79.82;99210.09;129560;1257;127665;-63
2024/01/17 06:25:21;;;;;;;32.80;14.20;;;;;;;-8.94;80.14;99208.14;129875;1270;114827;-64
2024/01/17 06:28:23;;;;;;;43.70;21.80;;;;;;;-8.96;80.35;99203.95;129902;1259;114825;-63
2024/01/17 06:31:25;;;;;;;33.20;16.40;;;;;;;-8.97;80.61;99198.05;129849;1271;114843;-64
2024/01/17 06:34:28;;;;;;;31.40;15.00;;;;;;;-8.98;80.29;99197.52;129819;1256;114848;-64
2024/01/17 06:37:31;;;;;;;31.00;14.80;;;;;;;-9.01;80.05;99193.34;129886;1260;114797;-64
2024/01/17 06:40:33;;;;;;;32.40;14.60;;;;;;;-9.04;79.82;99191.77;130014;1260;114719;-65
2024/01/17 06:43:35;;;;;;;41.80;18.60;;;;;;;-9.06;79.85;99188.27;129909;1259;114757;-64
2024/01/17 06:46:37;;;;;;;33.80;16.60;;;;;;;-9.07;79.89;99181.86;129903;1259;114792;-64
2024/01/17 06:49:41;;;;;;;32.70;16.10;;;;;;;-9.10;79.81;99181.83;129927;1259;115328;-65
2024/01/17 06:52:43;;;;;;;29.90;13.80;;;;;;;-9.13;79.64;99180.41;129884;1259;114789;-66
2024/01/17 06:55:45;;;;;;;33.60;15.40;;;;;;;-9.15;79.89;99176.41;129856;1270;114737;-66
2024/01/17 06:58:47;;;;;;;39.70;18.10;;;;;;;-9.17;79.98;99168.09;129918;1254;114728;-66
2024/01/17 07:01:49;;;;;;;41.10;17.30;;;;;;;-9.17;80.01;99157.02;129490;1256;128319;-63
2024/01/17 07:04:51;;;;;;;39.00;15.60;;;;;;;-9.15;80.31;99153.23;129956;1259;114834;-64
2024/01/17 07:07:53;;;;;;;32.90;13.70;;;;;;;-9.13;80.08;99150.31;130061;1254;114815;-65
2024/01/17 07:10:55;;;;;;;35.80;16.20;;;;;;;-9.10;80.03;99149.31;129571;1259;114877;-65
2024/01/17 07:13:57;;;;;;;35.10;16.20;;;;;;;-9.08;80.05;99144.14;129994;1270;114720;-64
2024/01/17 07:16:59;;;;;;;39.10;18.40;;;;;;;-9.06;79.85;99140.54;130032;1270;114941;-64
2024/01/17 07:20:04;;;;;;;52.10;21.50;;;;;;;-9.01;79.92;99132.45;130014;1259;114791;-66
2024/01/17 07:23:08;;;;;;;41.40;18.90;;;;;;;-8.97;79.72;99119.87;129826;1259;128848;-63
2024/01/17 07:26:11;;;;;;;43.00;21.50;;;;;;;-8.92;79.91;99112.66;129514;1261;116469;-63
2024/01/17 07:29:15;;;;;;;42.90;21.20;;;;;;;-8.83;80.38;99105.47;129513;1264;114884;-62
2024/01/17 07:32:17;;;;;;;49.20;23.60;;;;;;;-8.73;80.58;99107.98;130088;1259;114690;-64
2024/01/17 07:35:19;;;;;;;53.20;23.80;;;;;;;-8.61;80.62;99105.31;129869;1267;114831;-63
2024/01/17 07:38:22;;;;;;;49.40;23.50;;;;;;;-8.49;80.54;99103.83;130031;1255;115709;-63
2024/01/17 07:41:24;;;;;;;51.10;23.40;;;;;;;-8.39;80.37;99106.33;129878;1259;128836;-63
2024/01/17 07:44:29;;;;;;;46.30;21.20;;;;;;;-8.30;80.48;99103.44;129884;1267;114797;-63
2024/01/17 07:47:31;;;;;;;43.00;21.40;;;;;;;-8.18;80.80;99093.30;129957;1259;114698;-64
2024/01/17 07:50:33;;;;;;;50.40;24.90;;;;;;;-8.07;80.72;99081.07;129966;1259;114843;-63
2024/01/17 07:53:35;;;;;;;54.10;24.00;;;;;;;-7.93;80.12;99082.35;129940;1257;114812;-64
2024/01/17 07:56:37;;;;;;;55.00;26.20;;;;;;;-7.77;80.72;99086.43;129760;1259;114812;-63
2024/01/17 07:59:39;;;;;;;50.40;24.30;;;;;;;-7.61;80.73;99072.11;129700;1256;114811;-63
2024/01/17 08:02:42;;;;;;;57.10;26.10;;;;;;;-7.44;80.74;99068.70;129781;1259;115135;-63
2024/01/17 08:05:44;;;;;;;60.50;26.80;;;;;;;-7.27;80.99;99060.23;129494;1261;116272;-64
2024/01/17 08:08:46;;;;;;;111.60;47.20;;;;;;;-7.08;81.17;99051.61;129843;1260;115244;-63
2024/01/17 08:11:50;;;;;;;264.70;90.70;;;;;;;-6.90;81.07;99041.04;129956;1259;114688;-63
2024/01/17 08:14:52;;;;;;;220.10;75.80;;;;;;;-6.75;81.32;99035.84;129970;1260;114869;-64
2024/01/17 08:17:54;;;;;;;106.70;39.10;;;;;;;-6.62;81.06;99031.85;129847;1257;114893;-63
2024/01/17 08:20:57;;;;;;;49.20;22.40;;;;;;;-6.48;81.25;99022.62;129949;1259;115163;-64
2024/01/17 08:23:59;;;;;;;27.50;13.70;;;;;;;-6.36;81.38;99013.74;129929;1257;129174;-63
2024/01/17 08:27:01;;;;;;;36.40;19.40;;;;;;;-6.27;81.11;99001.57;129816;1259;114942;-63
2024/01/17 08:30:04;;;;;;;45.40;18.50;;;;;;;-6.18;81.50;98991.81;129947;1259;114674;-64
2024/01/17 08:33:06;;;;;;;43.30;21.60;;;;;;;-6.12;81.25;98982.92;129891;1259;114737;-66
2024/01/17 08:36:08;;;;;;;32.30;16.30;;;;;;;-6.09;81.33;98965.54;129959;1254;114691;-63
2024/01/17 08:39:11;;;;;;;30.60;15.00;;;;;;;-6.07;81.03;98961.52;129932;1259;114750;-63
2024/01/17 08:42:13;;;;;;;29.70;13.50;;;;;;;-6.04;80.99;98952.13;129931;1259;115380;-63
2024/01/17 08:45:18;;;;;;;33.20;16.10;;;;;;;-5.98;81.35;98950.69;129887;1259;114830;-64
2024/01/17 08:48:20;;;;;;;32.60;16.00;;;;;;;-5.91;81.10;98947.70;129575;1262;114914;-64
2024/01/17 08:51:24;;;;;;;38.10;17.40;;;;;;;-5.83;81.29;98937.92;129940;1258;114716;-64
2024/01/17 08:54:27;;;;;;;30.60;14.50;;;;;;;-5.70;81.52;98931.23;129873;1259;114690;-64
2024/01/17 08:57:29;;;;;;;37.90;18.10;;;;;;;-5.60;81.27;98928.39;129902;1259;115182;-64
2024/01/17 09:00:32;;;;;;;32.50;15.10;;;;;;;-5.47;81.37;98924.31;129809;1259;114761;-64
2024/01/17 09:03:34;;;;;;;28.80;14.00;;;;;;;-5.32;81.85;98924.89;129916;1258;114751;-64
2024/01/17 09:06:37;;;;;;;28.40;14.90;;;;;;;-5.16;81.61;98920.24;129567;1256;114812;-64
2024/01/17 09:09:38;;;;;;;27.80;12.90;;;;;;;-4.98;81.70;98907.02;129855;1259;114810;-63
2024/01/17 09:12:40;;;;;;;37.60;16.50;;;;;;;-4.80;81.84;98914.86;129881;1259;114786;-63
2024/01/17 09:15:43;;;;;;;38.00;17.80;;;;;;;-4.57;81.72;98908.37;129502;1259;114812;-63
2024/01/17 09:18:45;;;;;;;44.10;21.80;;;;;;;-4.33;81.56;98895.20;130024;1270;114649;-63
2024/01/17 09:21:48;;;;;;;30.40;14.70;;;;;;;-4.06;82.06;98887.55;129891;1258;114670;-63
2024/01/17 09:24:50;;;;;;;20.10;8.30;;;;;;;-3.82;81.49;98873.79;129628;1264;127904;-63
2024/01/17 09:27:52;;;;;;;31.80;15.20;;;;;;;-3.66;81.05;98861.34;129626;1256;114864;-63
2024/01/17 09:30:54;;;;;;;21.10;11.20;;;;;;;-3.52;81.15;98852.07;129934;1261;114790;-64
2024/01/17 09:33:56;;;;;;;38.00;17.50;;;;;;;-3.42;80.68;98848.93;129472;1259;114808;-63
2024/01/17 09:37:00;;;;;;;26.00;15.90;;;;;;;-3.32;80.45;98840.22;129879;1258;115010;-64
2024/01/17 09:40:05;;;;;;;32.10;15.40;;;;;;;-3.24;80.18;98838.52;129905;1277;114914;-63
2024/01/17 09:43:08;;;;;;;22.90;12.40;;;;;;;-3.15;80.07;98832.25;129841;1262;127645;-64
2024/01/17 09:46:12;;;;;;;20.80;10.90;;;;;;;-3.00;79.94;98826.22;129862;1259;114889;-63
2024/01/17 09:49:14;;;;;;;25.00;12.60;;;;;;;-2.85;79.36;98818.95;129536;1257;114778;-63
2024/01/17 09:52:17;;;;;;;27.30;13.00;;;;;;;-2.69;79.92;98812.35;129822;1259;115217;-64
2024/01/17 09:55:20;;;;;;;31.50;15.50;;;;;;;-2.52;79.94;98798.90;130014;1272;114705;-64
2024/01/17 09:58:23;;;;;;;24.10;12.30;;;;;;;-2.40;79.62;98791.49;129882;1259;114789;-64
2024/01/17 10:01:27;;;;;;;45.50;21.50;;;;;;;-2.33;79.04;98778.91;129988;1271;114704;-64
2024/01/17 10:04:29;;;;;;;31.20;17.80;;;;;;;-2.26;78.80;98766.88;129907;1277;115299;-64
2024/01/17 10:07:31;;;;;;;29.60;14.10;;;;;;;-2.15;79.43;98758.59;129628;1259;115231;-66
2024/01/17 10:10:33;;;;;;;15.70;7.10;;;;;;;-2.02;79.22;98755.85;129746;1263;114678;-65
2024/01/17 10:13:36;;;;;;;28.40;13.20;;;;;;;-1.94;78.91;98752.87;129482;1254;114805;-64
2024/01/17 10:16:38;;;;;;;21.20;9.20;;;;;;;-1.90;78.41;98745.61;129823;1259;114694;-65
2024/01/17 10:19:40;;;;;;;39.00;17.90;;;;;;;-1.91;77.53;98740.02;129894;1259;115083;-66
2024/01/17 10:22:46;;;;;;;27.40;13.60;;;;;;;-1.90;77.67;98728.63;129881;1277;128920;-64
2024/01/17 10:25:48;;;;;;;29.50;14.90;;;;;;;-1.91;77.64;98723.22;129655;1260;114797;-65
2024/01/17 10:28:51;;;;;;;29.90;14.80;;;;;;;-1.90;77.88;98719.70;129958;1260;114953;-66
2024/01/17 10:31:58;;;;;;;24.70;11.90;;;;;;;-1.85;78.10;98717.33;130030;1256;114827;-65
2024/01/17 10:35:04;;;;;;;24.80;13.10;;;;;;;-1.80;77.41;98700.72;129538;1256;114902;-65
2024/01/17 10:38:06;;;;;;;27.20;14.20;;;;;;;-1.78;77.19;98687.20;129573;1254;127836;-66
2024/01/17 10:41:08;;;;;;;32.20;17.50;;;;;;;-1.70;77.31;98686.11;129941;1256;114832;-64
2024/01/17 10:44:17;;;;;;;51.10;22.60;;;;;;;-1.63;77.67;98677.02;129960;1258;115049;-64
2024/01/17 10:47:19;;;;;;;28.40;14.90;;;;;;;-1.55;76.90;98668.73;129911;1255;114743;-66
2024/01/17 10:50:21;;;;;;;19.90;9.40;;;;;;;-1.51;76.62;98666.91;129853;1259;114709;-64
2024/01/17 10:53:23;;;;;;;25.90;12.50;;;;;;;-1.49;76.71;98664.05;129778;1257;114699;-64
2024/01/17 10:56:26;;;;;;;14.60;8.80;;;;;;;-1.49;76.35;98656.70;129473;1265;114778;-67
2024/01/17 10:59:28;;;;;;;26.90;16.30;;;;;;;-1.50;75.57;98651.65;129780;1259;114780;-66
2024/01/17 11:02:31;;;;;;;30.60;15.40;;;;;;;-1.48;76.25;98645.98;129697;1259;114720;-64
2024/01/17 11:05:43;;;;;;;34.30;15.40;;;;;;;-1.45;76.19;98625.77;129666;1260;115158;-65
2024/01/17 11:08:46;;;;;;;40.50;21.60;;;;;;;-1.37;76.53;98618.52;129567;1258;116381;-66
2024/01/17 11:11:49;;;;;;;32.70;19.70;;;;;;;-1.27;76.73;98612.31;129487;1259;360042;-66
2024/01/17 11:14:54;;;;;;;24.00;13.90;;;;;;;-1.17;76.84;98611.48;129547;1278;114885;-66
2024/01/17 11:17:56;;;;;;;19.10;11.00;;;;;;;-1.08;76.47;98607.55;129526;1256;114821;-64
2024/01/17 11:20:59;;;;;;;28.40;15.70;;;;;;;-1.00;75.92;98596.46;129642;1261;115609;-64
2024/01/17 11:24:08;;;;;;;41.50;22.60;;;;;;;-0.91;76.58;98586.89;129853;1259;114806;-64
2024/01/17 11:27:16;;;;;;;28.60;16.20;;;;;;;-0.75;76.55;98589.20;129724;1259;116371;-67
2024/01/17 11:30:48;;;;;;;26.40;12.90;;;;;;;-0.68;75.93;98579.19;129745;1259;129115;-65
2024/01/17 11:33:51;;;;;;;30.70;14.60;;;;;;;-0.69;75.61;98570.43;129634;1259;114807;-64
2024/01/17 11:36:53;;;;;;;30.20;16.00;;;;;;;-0.66;75.82;98563.33;130012;1257;115189;-63
2024/01/17 11:39:56;;;;;;;28.70;14.80;;;;;;;-0.56;76.17;98556.02;129853;1277;115244;-63
2024/01/17 11:42:58;;;;;;;19.80;9.40;;;;;;;-0.47;75.95;98545.53;129860;1259;114820;-62
2024/01/17 11:46:01;;;;;;;25.20;14.30;;;;;;;-0.39;75.84;98531.23;129953;1259;114722;-64
2024/01/17 11:49:04;;;;;;;26.60;15.20;;;;;;;-0.29;75.71;98524.06;129929;1260;128825;-63
2024/01/17 11:52:33;;;;;;;25.10;13.80;;;;;;;-0.20;75.47;98515.70;129850;1277;114691;-64
2024/01/17 11:55:48;;;;;;;25.60;13.90;;;;;;;-0.14;75.10;98506.90;129637;1254;115127;-63
2024/01/17 11:59:05;;;;;;;17.10;9.40;;;;;;;-0.06;75.48;98498.71;129792;1259;115171;-65
2024/01/17 12:02:07;;;;;;;30.50;17.20;;;;;;;0.05;75.31;98490.60;129925;1257;114849;-66
2024/01/17 12:05:10;;;;;;;24.50;13.00;;;;;;;0.14;75.22;98479.90;129900;1259;115321;-66
2024/01/17 12:08:13;;;;;;;22.00;11.70;;;;;;;0.25;75.43;98470.73;129906;1277;114706;-64
2024/01/17 12:11:17;;;;;;;26.80;15.40;;;;;;;0.36;75.23;98468.61;129929;1259;115166;-66
2024/01/17 12:14:19;;;;;;;27.00;14.10;;;;;;;0.48;75.35;98456.20;129827;1277;115212;-63
2024/01/17 12:17:22;;;;;;;26.20;13.80;;;;;;;0.62;75.21;98443.70;129990;1257;115105;-66
2024/01/17 12:20:35;;;;;;;17.10;8.60;;;;;;;0.72;74.94;98442.45;129802;1270;114818;-66
2024/01/17 12:23:45;;;;;;;27.00;14.80;;;;;;;0.73;73.87;98436.44;129460;1263;127637;-66
2024/01/17 12:26:52;;;;;;;25.80;14.00;;;;;;;0.70;73.87;98430.05;129708;1256;114805;-66
2024/01/17 12:29:54;;;;;;;25.80;13.40;;;;;;;0.71;73.66;98423.34;129692;1259;114981;-64
2024/01/17 12:32:57;;;;;;;28.10;16.00;;;;;;;0.72;73.90;98420.14;129807;1259;114730;-63
2024/01/17 12:36:03;;;;;;;27.10;14.50;;;;;;;0.79;73.86;98413.00;130037;1275;115157;-66
2024/01/17 12:39:06;;;;;;;21.90;11.70;;;;;;;0.89;73.92;98409.44;129683;1265;115380;-66
2024/01/17 12:42:08;;;;;;;27.60;14.70;;;;;;;0.89;73.08;98402.77;129878;1277;114812;-66
2024/01/17 12:45:10;;;;;;;29.20;16.80;;;;;;;0.85;73.08;98391.84;129766;1277;114742;-65
2024/01/17 12:48:16;;;;;;;32.40;15.60;;;;;;;0.86;73.08;98390.59;129816;1259;114895;-67
2024/01/17 12:51:18;;;;;;;33.60;17.40;;;;;;;0.91;74.16;98387.18;130039;1257;114712;-66
2024/01/17 12:54:21;;;;;;;27.70;14.80;;;;;;;0.96;73.24;98381.40;129402;1265;114774;-66
2024/01/17 12:57:24;;;;;;;31.70;18.10;;;;;;;0.91;72.92;98371.58;129797;1257;115173;-66
2024/01/17 13:00:27;;;;;;;30.20;15.90;;;;;;;0.89;73.11;98367.41;129651;1261;114714;-67
2024/01/17 13:03:29;;;;;;;32.20;16.30;;;;;;;0.87;73.12;98367.14;129671;1257;114775;-67
2024/01/17 13:06:31;;;;;;;30.00;16.60;;;;;;;0.90;73.28;98361.23;130000;1272;114712;-64
2024/01/17 13:09:33;;;;;;;29.10;15.60;;;;;;;0.88;73.37;98359.20;129577;1257;114825;-63
2024/01/17 13:12:36;;;;;;;35.00;17.70;;;;;;;0.89;73.02;98353.70;129855;1256;114783;-63
2024/01/17 13:15:41;;;;;;;27.70;13.40;;;;;;;0.88;73.22;98345.13;129866;1260;114796;-63
2024/01/17 13:18:43;;;;;;;15.50;8.90;;;;;;;0.86;72.83;98337.87;129590;1264;114906;-63
2024/01/17 13:21:49;;;;;;;33.20;16.80;;;;;;;0.81;72.60;98334.35;129756;1271;114936;-64
2024/01/17 13:24:52;;;;;;;33.00;17.70;;;;;;;0.78;73.13;98329.73;129848;1259;114704;-64
2024/01/17 13:27:55;;;;;;;26.00;13.90;;;;;;;0.76;72.46;98324.04;129905;1259;114805;-63
2024/01/17 13:30:58;;;;;;;19.30;10.50;;;;;;;0.74;72.65;98304.25;129796;1259;115240;-64
2024/01/17 13:34:01;;;;;;;32.00;15.30;;;;;;;0.71;72.44;98298.20;129781;1269;114769;-63
2024/01/17 13:37:03;;;;;;;34.40;16.90;;;;;;;0.69;72.80;98299.73;129810;1278;114706;-63
2024/01/17 13:40:08;;;;;;;34.10;17.30;;;;;;;0.71;73.17;98291.55;129904;1259;114754;-64
2024/01/17 13:43:11;;;;;;;22.80;10.70;;;;;;;0.74;72.83;98288.81;129615;1259;114848;-64